KMAI

Marianna Municipal Airport

Marianna, Florida, USA
METAR KMAI 231353Z AUTO 14006KT 10SM CLR 20/18 A3036 RMK AO2 SLP280 T02000183
Observed Flight Rules
Feb-23 @ 13:53 UTC (40 minutes ago) Visual Flight Rules
Wind Visibility Clouds
140° at 6 knots 10 miles
  • Clear skies
Temperatures Readings
Current 20°C / 68°F
Dewpoint 18°C / 64°F
Humidity 88%
Altimeter 30.36" Hg
Pressure 1028 hPa
Elevation 32
METAR KMAI 231353Z AUTO 14006KT 10SM CLR 20/18 A3036 RMK AO2 SLP280 T02000183
Observed Flight Rules
Feb-23 @ 13:53 UTC
(40 minutes ago)
VFR
Wind Visibility
140° at 6 knots 10 miles
Clouds
  • Clear skies
Temperature Dewpoint
20°C / 68°F 18°C / 64°F
Humidity Altimeter Pressure
88% 30.36" Hg 1028 hPa